sensor_id;sensor_type;location;lat;lon;timestamp;P1;durP1;ratioP1;P2;durP2;ratioP2
54121;SDS011;40029;58.708;50.190;2023-03-01T04:31:08;13.55;;;4.35;;
54121;SDS011;40029;58.708;50.190;2023-03-01T04:33:51;14.57;;;3.22;;
54121;SDS011;40029;58.708;50.190;2023-03-01T04:36:25;10.77;;;3.17;;
54121;SDS011;40029;58.708;50.190;2023-03-01T04:38:57;16.20;;;3.23;;
54121;SDS011;40029;58.708;50.190;2023-03-01T04:41:28;11.23;;;2.78;;
54121;SDS011;40029;58.708;50.190;2023-03-01T04:43:59;12.50;;;3.50;;
54121;SDS011;40029;58.708;50.190;2023-03-01T04:46:30;3.10;;;1.23;;
54121;SDS011;40029;58.708;50.190;2023-03-01T04:49:02;5.67;;;1.67;;
54121;SDS011;40029;58.708;50.190;2023-03-01T04:51:34;7.85;;;2.70;;
54121;SDS011;40029;58.708;50.190;2023-03-01T04:54:05;8.43;;;1.27;;
54121;SDS011;40029;58.708;50.190;2023-03-01T04:56:41;4.40;;;1.65;;
54121;SDS011;40029;58.708;50.190;2023-03-01T04:59:12;8.40;;;2.38;;
54121;SDS011;40029;58.708;50.190;2023-03-01T05:01:43;9.10;;;2.70;;
54121;SDS011;40029;58.708;50.190;2023-03-01T05:04:14;17.35;;;5.47;;
54121;SDS011;40029;58.708;50.190;2023-03-01T05:06:46;16.55;;;3.92;;
54121;SDS011;40029;58.708;50.190;2023-03-01T05:09:17;23.70;;;7.30;;
54121;SDS011;40029;58.708;50.190;2023-03-01T05:11:48;16.77;;;4.95;;
54121;SDS011;40029;58.708;50.190;2023-03-01T05:14:19;20.60;;;5.03;;
54121;SDS011;40029;58.708;50.190;2023-03-01T05:16:49;18.73;;;5.10;;
54121;SDS011;40029;58.708;50.190;2023-03-01T05:19:20;21.15;;;6.70;;
54121;SDS011;40029;58.708;50.190;2023-03-01T05:21:53;14.43;;;3.55;;
54121;SDS011;40029;58.708;50.190;2023-03-01T05:24:34;13.70;;;3.45;;
54121;SDS011;40029;58.708;50.190;2023-03-01T05:27:06;10.68;;;3.10;;
54121;SDS011;40029;58.708;50.190;2023-03-01T05:29:37;20.05;;;5.47;;
54121;SDS011;40029;58.708;50.190;2023-03-01T05:32:09;9.32;;;2.95;;
54121;SDS011;40029;58.708;50.190;2023-03-01T05:34:46;14.35;;;3.75;;
54121;SDS011;40029;58.708;50.190;2023-03-01T05:37:35;4.72;;;1.95;;
54121;SDS011;40029;58.708;50.190;2023-03-01T05:40:25;21.20;;;3.80;;
54121;SDS011;40029;58.708;50.190;2023-03-01T05:42:56;20.63;;;6.75;;
54121;SDS011;40029;58.708;50.190;2023-03-01T05:45:27;10.45;;;3.38;;
54121;SDS011;40029;58.708;50.190;2023-03-01T05:48:17;12.05;;;3.78;;
54121;SDS011;40029;58.708;50.190;2023-03-01T05:50:50;6.03;;;2.38;;
54121;SDS011;40029;58.708;50.190;2023-03-01T05:53:21;13.55;;;5.10;;
54121;SDS011;40029;58.708;50.190;2023-03-01T05:55:52;3.72;;;1.75;;
54121;SDS011;40029;58.708;50.190;2023-03-01T05:58:23;6.22;;;1.88;;
54121;SDS011;40029;58.708;50.190;2023-03-01T06:01:13;4.93;;;2.47;;
54121;SDS011;40029;58.708;50.190;2023-03-01T06:03:44;8.60;;;2.88;;
54121;SDS011;40029;58.708;50.190;2023-03-01T06:06:15;5.45;;;2.35;;
54121;SDS011;40029;58.708;50.190;2023-03-01T06:08:46;9.73;;;3.38;;
54121;SDS011;40029;58.708;50.190;2023-03-01T06:11:36;8.57;;;3.78;;
54121;SDS011;40029;58.708;50.190;2023-03-01T06:14:07;8.52;;;2.35;;
54121;SDS011;40029;58.708;50.190;2023-03-01T06:16:38;10.43;;;2.97;;
54121;SDS011;40029;58.708;50.190;2023-03-01T06:19:09;9.65;;;0.95;;
54121;SDS011;40029;58.708;50.190;2023-03-01T06:21:40;3.60;;;1.35;;
54121;SDS011;40029;58.708;50.190;2023-03-01T06:24:30;5.75;;;1.10;;
54121;SDS011;40029;58.708;50.190;2023-03-01T06:27:01;4.20;;;1.13;;
54121;SDS011;40029;58.708;50.190;2023-03-01T06:29:32;4.90;;;1.83;;
54121;SDS011;40029;58.708;50.190;2023-03-01T06:32:03;3.05;;;1.05;;
54121;SDS011;40029;58.708;50.190;2023-03-01T06:34:52;7.82;;;1.25;;
54121;SDS011;40029;58.708;50.190;2023-03-01T06:37:24;7.85;;;2.05;;
54121;SDS011;40029;58.708;50.190;2023-03-01T06:39:58;6.88;;;2.42;;
54121;SDS011;40029;58.708;50.190;2023-03-01T06:42:29;15.85;;;5.93;;
54121;SDS011;40029;58.708;50.190;2023-03-01T06:45:00;9.07;;;2.55;;
54121;SDS011;40029;58.708;50.190;2023-03-01T06:47:31;2.75;;;1.70;;
54121;SDS011;40029;58.708;50.190;2023-03-01T06:50:06;1.77;;;0.80;;
54121;SDS011;40029;58.708;50.190;2023-03-01T06:52:38;5.82;;;1.10;;
54121;SDS011;40029;58.708;50.190;2023-03-01T06:55:09;3.42;;;0.82;;
54121;SDS011;40029;58.708;50.190;2023-03-01T06:57:43;5.35;;;2.20;;
54121;SDS011;40029;58.708;50.190;2023-03-01T07:00:14;8.43;;;3.58;;
54121;SDS011;40029;58.708;50.190;2023-03-01T07:02:45;5.10;;;1.35;;
54121;SDS011;40029;58.708;50.190;2023-03-01T07:05:16;3.50;;;1.00;;
54121;SDS011;40029;58.708;50.190;2023-03-01T07:07:48;0.90;;;0.50;;
54121;SDS011;40029;58.708;50.190;2023-03-01T07:10:19;4.47;;;1.08;;
54121;SDS011;40029;58.708;50.190;2023-03-01T07:12:50;4.53;;;1.15;;
54121;SDS011;40029;58.708;50.190;2023-03-01T07:15:21;4.55;;;1.73;;
54121;SDS011;40029;58.708;50.190;2023-03-01T07:17:52;3.28;;;0.95;;
54121;SDS011;40029;58.708;50.190;2023-03-01T07:20:23;2.70;;;1.20;;
54121;SDS011;40029;58.708;50.190;2023-03-01T07:22:55;5.47;;;2.00;;
54121;SDS011;40029;58.708;50.190;2023-03-01T07:25:29;9.20;;;3.08;;
54121;SDS011;40029;58.708;50.190;2023-03-01T07:28:18;6.28;;;2.25;;
54121;SDS011;40029;58.708;50.190;2023-03-01T07:30:49;5.45;;;1.95;;
54121;SDS011;40029;58.708;50.190;2023-03-01T07:33:20;15.57;;;4.32;;
54121;SDS011;40029;58.708;50.190;2023-03-01T07:35:55;28.73;;;8.93;;
54121;SDS011;40029;58.708;50.190;2023-03-01T07:38:31;7.10;;;2.80;;
54121;SDS011;40029;58.708;50.190;2023-03-01T07:41:21;6.53;;;1.92;;
54121;SDS011;40029;58.708;50.190;2023-03-01T07:43:52;5.28;;;1.60;;
54121;SDS011;40029;58.708;50.190;2023-03-01T07:46:23;5.90;;;1.40;;
54121;SDS011;40029;58.708;50.190;2023-03-01T07:48:54;2.97;;;1.02;;
54121;SDS011;40029;58.708;50.190;2023-03-01T07:51:25;9.93;;;4.22;;
54121;SDS011;40029;58.708;50.190;2023-03-01T07:53:56;2.38;;;0.90;;
54121;SDS011;40029;58.708;50.190;2023-03-01T07:56:28;1.40;;;0.70;;
54121;SDS011;40029;58.708;50.190;2023-03-01T07:58:59;9.63;;;2.78;;
54121;SDS011;40029;58.708;50.190;2023-03-01T08:01:31;8.55;;;2.33;;
54121;SDS011;40029;58.708;50.190;2023-03-01T08:04:02;8.02;;;1.48;;
54121;SDS011;40029;58.708;50.190;2023-03-01T08:06:35;6.03;;;1.63;;
54121;SDS011;40029;58.708;50.190;2023-03-01T08:09:06;5.80;;;1.40;;
54121;SDS011;40029;58.708;50.190;2023-03-01T08:11:38;8.85;;;3.70;;
54121;SDS011;40029;58.708;50.190;2023-03-01T08:14:09;6.28;;;2.08;;
54121;SDS011;40029;58.708;50.190;2023-03-01T08:16:59;7.88;;;2.05;;
54121;SDS011;40029;58.708;50.190;2023-03-01T08:19:30;10.48;;;4.03;;
54121;SDS011;40029;58.708;50.190;2023-03-01T08:22:02;5.43;;;2.60;;
54121;SDS011;40029;58.708;50.190;2023-03-01T08:24:33;6.00;;;2.10;;
54121;SDS011;40029;58.708;50.190;2023-03-01T08:27:04;9.70;;;4.07;;
54121;SDS011;40029;58.708;50.190;2023-03-01T08:29:36;6.53;;;1.60;;
54121;SDS011;40029;58.708;50.190;2023-03-01T08:32:07;3.63;;;1.70;;
54121;SDS011;40029;58.708;50.190;2023-03-01T08:34:38;4.10;;;0.85;;
54121;SDS011;40029;58.708;50.190;2023-03-01T08:37:09;5.10;;;1.77;;
54121;SDS011;40029;58.708;50.190;2023-03-01T08:39:59;6.15;;;2.72;;
54121;SDS011;40029;58.708;50.190;2023-03-01T08:42:30;5.72;;;2.00;;
54121;SDS011;40029;58.708;50.190;2023-03-01T08:45:03;6.13;;;2.20;;
54121;SDS011;40029;58.708;50.190;2023-03-01T08:47:35;5.97;;;1.38;;
54121;SDS011;40029;58.708;50.190;2023-03-01T08:50:06;7.50;;;1.35;;
54121;SDS011;40029;58.708;50.190;2023-03-01T08:52:37;4.82;;;1.77;;
54121;SDS011;40029;58.708;50.190;2023-03-01T08:55:09;3.03;;;1.20;;
54121;SDS011;40029;58.708;50.190;2023-03-01T08:57:40;3.45;;;1.40;;
54121;SDS011;40029;58.708;50.190;2023-03-01T09:00:11;7.15;;;1.85;;
54121;SDS011;40029;58.708;50.190;2023-03-01T09:02:43;3.55;;;1.88;;
54121;SDS011;40029;58.708;50.190;2023-03-01T09:05:14;11.75;;;4.43;;
54121;SDS011;40029;58.708;50.190;2023-03-01T09:07:45;7.63;;;4.22;;
54121;SDS011;40029;58.708;50.190;2023-03-01T09:10:16;11.32;;;4.72;;
54121;SDS011;40029;58.708;50.190;2023-03-01T09:12:48;8.15;;;3.85;;
54121;SDS011;40029;58.708;50.190;2023-03-01T09:15:19;8.10;;;2.88;;
54121;SDS011;40029;58.708;50.190;2023-03-01T09:17:50;5.13;;;2.90;;
54121;SDS011;40029;58.708;50.190;2023-03-01T09:20:22;8.00;;;3.83;;
54121;SDS011;40029;58.708;50.190;2023-03-01T09:22:53;7.13;;;2.88;;
54121;SDS011;40029;58.708;50.190;2023-03-01T09:25:24;6.25;;;2.80;;
54121;SDS011;40029;58.708;50.190;2023-03-01T09:28:14;20.00;;;6.88;;
54121;SDS011;40029;58.708;50.190;2023-03-01T09:30:45;6.35;;;3.70;;
54121;SDS011;40029;58.708;50.190;2023-03-01T09:33:16;9.00;;;3.17;;
54121;SDS011;40029;58.708;50.190;2023-03-01T09:35:47;3.30;;;1.85;;
54121;SDS011;40029;58.708;50.190;2023-03-01T09:38:18;15.65;;;4.35;;
54121;SDS011;40029;58.708;50.190;2023-03-01T09:40:49;5.35;;;1.92;;
54121;SDS011;40029;58.708;50.190;2023-03-01T09:46:14;3.97;;;1.75;;
54121;SDS011;40029;58.708;50.190;2023-03-01T09:48:55;3.72;;;1.10;;
54121;SDS011;40029;58.708;50.190;2023-03-01T09:51:33;3.55;;;1.65;;
54121;SDS011;40029;58.708;50.190;2023-03-01T09:54:06;10.90;;;3.55;;
54121;SDS011;40029;58.708;50.190;2023-03-01T10:11:31;2.05;;;1.20;;
54121;SDS011;40029;58.708;50.190;2023-03-01T10:22:49;7.18;;;1.90;;
54121;SDS011;40029;58.708;50.190;2023-03-01T10:25:31;2.75;;;0.90;;
54121;SDS011;40029;58.708;50.190;2023-03-01T10:28:18;2.42;;;1.00;;
54121;SDS011;40029;58.708;50.190;2023-03-01T10:31:00;5.50;;;2.70;;
54121;SDS011;40029;58.708;50.190;2023-03-01T10:33:32;5.97;;;2.35;;
54121;SDS011;40029;58.708;50.190;2023-03-01T10:36:08;7.82;;;3.47;;
54121;SDS011;40029;58.708;50.190;2023-03-01T10:38:50;5.50;;;1.38;;
54121;SDS011;40029;58.708;50.190;2023-03-01T10:41:27;6.93;;;2.30;;
54121;SDS011;40029;58.708;50.190;2023-03-01T10:43:59;17.23;;;4.22;;
54121;SDS011;40029;58.708;50.190;2023-03-01T10:46:31;7.18;;;1.42;;
54121;SDS011;40029;58.708;50.190;2023-03-01T10:49:19;2.60;;;1.20;;
54121;SDS011;40029;58.708;50.190;2023-03-01T10:52:11;2.47;;;1.13;;
54121;SDS011;40029;58.708;50.190;2023-03-01T10:54:55;4.32;;;1.45;;
54121;SDS011;40029;58.708;50.190;2023-03-01T10:57:34;1.17;;;0.82;;
54121;SDS011;40029;58.708;50.190;2023-03-01T11:00:16;3.40;;;1.42;;
54121;SDS011;40029;58.708;50.190;2023-03-01T11:05:30;3.47;;;1.45;;
54121;SDS011;40029;58.708;50.190;2023-03-01T11:08:04;2.85;;;1.10;;
54121;SDS011;40029;58.708;50.190;2023-03-01T11:10:35;5.97;;;1.60;;
54121;SDS011;40029;58.708;50.190;2023-03-01T11:15:59;1.42;;;0.70;;
54121;SDS011;40029;58.708;50.190;2023-03-01T11:18:36;2.70;;;0.85;;
54121;SDS011;40029;58.708;50.190;2023-03-01T11:21:26;2.47;;;0.98;;
54121;SDS011;40029;58.708;50.190;2023-03-01T11:24:00;3.20;;;1.10;;
54121;SDS011;40029;58.708;50.190;2023-03-01T11:26:34;3.25;;;1.30;;
54121;SDS011;40029;58.708;50.190;2023-03-01T11:29:27;4.43;;;0.95;;
54121;SDS011;40029;58.708;50.190;2023-03-01T11:32:40;4.57;;;1.80;;
54121;SDS011;40029;58.708;50.190;2023-03-01T11:35:22;5.82;;;1.63;;
54121;SDS011;40029;58.708;50.190;2023-03-01T11:43:49;2.80;;;0.80;;
54121;SDS011;40029;58.708;50.190;2023-03-01T11:58:01;10.57;;;3.20;;
54121;SDS011;40029;58.708;50.190;2023-03-01T12:06:35;6.93;;;3.25;;
54121;SDS011;40029;58.708;50.190;2023-03-01T12:20:36;21.85;;;6.75;;
54121;SDS011;40029;58.708;50.190;2023-03-01T12:29:24;27.13;;;8.77;;
54121;SDS011;40029;58.708;50.190;2023-03-01T12:34:46;29.77;;;9.57;;
54121;SDS011;40029;58.708;50.190;2023-03-01T12:40:24;27.02;;;8.88;;
54121;SDS011;40029;58.708;50.190;2023-03-01T12:46:46;20.13;;;6.03;;
54121;SDS011;40029;58.708;50.190;2023-03-01T12:49:20;13.82;;;6.70;;
54121;SDS011;40029;58.708;50.190;2023-03-01T12:52:01;21.67;;;7.47;;
54121;SDS011;40029;58.708;50.190;2023-03-01T12:54:40;19.88;;;6.47;;
54121;SDS011;40029;58.708;50.190;2023-03-01T12:57:15;28.23;;;9.40;;
54121;SDS011;40029;58.708;50.190;2023-03-01T13:02:59;28.38;;;9.30;;
54121;SDS011;40029;58.708;50.190;2023-03-01T13:09:04;29.13;;;10.30;;
54121;SDS011;40029;58.708;50.190;2023-03-01T13:11:40;9.02;;;4.07;;
54121;SDS011;40029;58.708;50.190;2023-03-01T13:16:54;6.28;;;3.22;;
54121;SDS011;40029;58.708;50.190;2023-03-01T13:19:26;7.93;;;3.30;;
54121;SDS011;40029;58.708;50.190;2023-03-01T13:25:13;8.70;;;2.95;;
54121;SDS011;40029;58.708;50.190;2023-03-01T13:27:47;8.38;;;3.55;;
54121;SDS011;40029;58.708;50.190;2023-03-01T13:35:59;19.17;;;7.13;;
54121;SDS011;40029;58.708;50.190;2023-03-01T13:38:45;16.38;;;5.72;;
54121;SDS011;40029;58.708;50.190;2023-03-01T13:44:34;25.52;;;7.07;;
54121;SDS011;40029;58.708;50.190;2023-03-01T13:49:59;19.40;;;7.35;;
54121;SDS011;40029;58.708;50.190;2023-03-01T13:55:27;42.10;;;10.88;;
54121;SDS011;40029;58.708;50.190;2023-03-01T14:01:29;46.45;;;13.70;;
54121;SDS011;40029;58.708;50.190;2023-03-01T14:04:01;40.40;;;13.27;;
54121;SDS011;40029;58.708;50.190;2023-03-01T14:06:34;21.05;;;6.55;;
54121;SDS011;40029;58.708;50.190;2023-03-01T14:20:19;4.78;;;2.70;;
54121;SDS011;40029;58.708;50.190;2023-03-01T14:22:53;8.40;;;3.45;;
54121;SDS011;40029;58.708;50.190;2023-03-01T14:25:27;11.82;;;3.83;;
54121;SDS011;40029;58.708;50.190;2023-03-01T14:28:20;10.93;;;3.95;;
54121;SDS011;40029;58.708;50.190;2023-03-01T14:30:57;14.82;;;4.50;;
54121;SDS011;40029;58.708;50.190;2023-03-01T14:33:33;21.80;;;6.63;;
54121;SDS011;40029;58.708;50.190;2023-03-01T14:36:33;25.25;;;7.55;;
54121;SDS011;40029;58.708;50.190;2023-03-01T14:39:15;23.77;;;7.93;;
54121;SDS011;40029;58.708;50.190;2023-03-01T14:41:48;9.50;;;3.05;;
54121;SDS011;40029;58.708;50.190;2023-03-01T14:44:21;15.65;;;4.35;;
54121;SDS011;40029;58.708;50.190;2023-03-01T14:46:55;13.70;;;5.15;;
54121;SDS011;40029;58.708;50.190;2023-03-01T14:49:29;12.35;;;5.30;;
54121;SDS011;40029;58.708;50.190;2023-03-01T14:52:03;9.65;;;5.00;;
54121;SDS011;40029;58.708;50.190;2023-03-01T14:54:39;11.43;;;3.83;;
54121;SDS011;40029;58.708;50.190;2023-03-01T14:57:16;13.05;;;4.45;;
54121;SDS011;40029;58.708;50.190;2023-03-01T14:59:55;17.52;;;4.53;;
54121;SDS011;40029;58.708;50.190;2023-03-01T15:02:31;24.98;;;9.00;;
54121;SDS011;40029;58.708;50.190;2023-03-01T15:05:25;23.75;;;7.78;;
54121;SDS011;40029;58.708;50.190;2023-03-01T15:08:00;29.48;;;10.38;;
54121;SDS011;40029;58.708;50.190;2023-03-01T15:10:34;29.90;;;8.75;;
54121;SDS011;40029;58.708;50.190;2023-03-01T15:13:14;27.23;;;9.27;;
54121;SDS011;40029;58.708;50.190;2023-03-01T15:15:53;23.10;;;7.32;;
54121;SDS011;40029;58.708;50.190;2023-03-01T15:19:15;26.77;;;11.13;;
54121;SDS011;40029;58.708;50.190;2023-03-01T15:21:38;13.75;;;6.10;;
54121;SDS011;40029;58.708;50.190;2023-03-01T15:26:58;36.10;;;13.05;;
54121;SDS011;40029;58.708;50.190;2023-03-01T15:29:36;47.72;;;15.90;;
54121;SDS011;40029;58.708;50.190;2023-03-01T15:35:38;40.42;;;11.55;;
54121;SDS011;40029;58.708;50.190;2023-03-01T15:38:35;73.00;;;23.40;;
54121;SDS011;40029;58.708;50.190;2023-03-01T15:41:22;67.18;;;20.50;;
54121;SDS011;40029;58.708;50.190;2023-03-01T15:43:56;57.42;;;18.75;;
54121;SDS011;40029;58.708;50.190;2023-03-01T15:46:45;52.17;;;15.93;;
54121;SDS011;40029;58.708;50.190;2023-03-01T15:49:40;32.28;;;9.80;;
54121;SDS011;40029;58.708;50.190;2023-03-01T15:52:13;35.00;;;10.68;;
54121;SDS011;40029;58.708;50.190;2023-03-01T15:54:51;30.85;;;8.93;;
54121;SDS011;40029;58.708;50.190;2023-03-01T15:57:22;24.85;;;8.52;;
54121;SDS011;40029;58.708;50.190;2023-03-01T15:59:54;24.75;;;8.32;;
54121;SDS011;40029;58.708;50.190;2023-03-01T16:02:44;27.65;;;8.57;;
54121;SDS011;40029;58.708;50.190;2023-03-01T16:05:25;30.20;;;9.20;;
54121;SDS011;40029;58.708;50.190;2023-03-01T16:08:03;26.70;;;8.45;;
54121;SDS011;40029;58.708;50.190;2023-03-01T16:10:36;29.33;;;10.45;;
54121;SDS011;40029;58.708;50.190;2023-03-01T16:13:09;26.92;;;8.88;;
54121;SDS011;40029;58.708;50.190;2023-03-01T16:15:41;28.48;;;9.68;;
54121;SDS011;40029;58.708;50.190;2023-03-01T16:18:14;28.42;;;9.50;;
54121;SDS011;40029;58.708;50.190;2023-03-01T16:20:45;21.23;;;7.82;;
54121;SDS011;40029;58.708;50.190;2023-03-01T16:23:17;22.35;;;8.85;;
54121;SDS011;40029;58.708;50.190;2023-03-01T16:26:09;15.18;;;6.22;;
54121;SDS011;40029;58.708;50.190;2023-03-01T16:28:41;18.60;;;7.03;;
54121;SDS011;40029;58.708;50.190;2023-03-01T16:31:17;17.80;;;6.40;;
54121;SDS011;40029;58.708;50.190;2023-03-01T16:33:50;22.95;;;8.45;;
54121;SDS011;40029;58.708;50.190;2023-03-01T16:36:24;33.70;;;10.75;;
54121;SDS011;40029;58.708;50.190;2023-03-01T16:38:59;27.63;;;9.93;;
54121;SDS011;40029;58.708;50.190;2023-03-01T16:41:34;24.67;;;9.77;;
54121;SDS011;40029;58.708;50.190;2023-03-01T16:44:06;26.85;;;10.05;;
54121;SDS011;40029;58.708;50.190;2023-03-01T16:46:38;30.17;;;10.60;;
54121;SDS011;40029;58.708;50.190;2023-03-01T16:49:22;31.00;;;10.55;;
54121;SDS011;40029;58.708;50.190;2023-03-01T16:51:57;50.83;;;16.15;;
54121;SDS011;40029;58.708;50.190;2023-03-01T16:54:29;52.17;;;15.85;;
54121;SDS011;40029;58.708;50.190;2023-03-01T16:57:01;61.58;;;21.10;;
54121;SDS011;40029;58.708;50.190;2023-03-01T16:59:34;59.33;;;21.00;;
54121;SDS011;40029;58.708;50.190;2023-03-01T17:02:10;50.90;;;18.98;;
54121;SDS011;40029;58.708;50.190;2023-03-01T17:04:44;46.30;;;16.77;;
54121;SDS011;40029;58.708;50.190;2023-03-01T17:07:16;59.45;;;18.10;;
54121;SDS011;40029;58.708;50.190;2023-03-01T17:09:47;49.75;;;14.52;;
54121;SDS011;40029;58.708;50.190;2023-03-01T17:12:19;48.90;;;15.43;;
54121;SDS011;40029;58.708;50.190;2023-03-01T17:14:51;31.73;;;11.38;;
54121;SDS011;40029;58.708;50.190;2023-03-01T17:17:24;31.27;;;10.57;;
54121;SDS011;40029;58.708;50.190;2023-03-01T17:19:55;31.60;;;11.48;;
54121;SDS011;40029;58.708;50.190;2023-03-01T17:22:27;24.90;;;8.50;;
54121;SDS011;40029;58.708;50.190;2023-03-01T17:24:58;15.55;;;3.67;;
54121;SDS011;40029;58.708;50.190;2023-03-01T17:27:30;12.95;;;4.10;;
54121;SDS011;40029;58.708;50.190;2023-03-01T17:32:37;10.60;;;3.45;;
54121;SDS011;40029;58.708;50.190;2023-03-01T17:35:08;12.85;;;4.05;;
54121;SDS011;40029;58.708;50.190;2023-03-01T17:37:43;11.98;;;3.75;;
54121;SDS011;40029;58.708;50.190;2023-03-01T17:40:34;9.35;;;3.50;;
54121;SDS011;40029;58.708;50.190;2023-03-01T17:43:09;6.40;;;2.95;;
54121;SDS011;40029;58.708;50.190;2023-03-01T17:45:40;11.98;;;5.18;;
54121;SDS011;40029;58.708;50.190;2023-03-01T17:48:18;8.50;;;4.03;;
54121;SDS011;40029;58.708;50.190;2023-03-01T17:51:09;10.23;;;4.22;;
54121;SDS011;40029;58.708;50.190;2023-03-01T17:53:41;9.40;;;4.17;;
54121;SDS011;40029;58.708;50.190;2023-03-01T17:56:12;15.65;;;5.68;;
54121;SDS011;40029;58.708;50.190;2023-03-01T17:58:44;20.80;;;5.90;;
54121;SDS011;40029;58.708;50.190;2023-03-01T18:01:17;11.85;;;3.80;;
54121;SDS011;40029;58.708;50.190;2023-03-01T18:03:52;10.43;;;4.18;;
54121;SDS011;40029;58.708;50.190;2023-03-01T18:06:25;18.55;;;5.55;;
54121;SDS011;40029;58.708;50.190;2023-03-01T18:09:16;15.27;;;5.45;;
54121;SDS011;40029;58.708;50.190;2023-03-01T18:11:47;11.73;;;5.10;;
54121;SDS011;40029;58.708;50.190;2023-03-01T18:14:18;13.75;;;5.45;;
54121;SDS011;40029;58.708;50.190;2023-03-01T18:16:50;11.65;;;5.60;;
54121;SDS011;40029;58.708;50.190;2023-03-01T18:19:21;19.02;;;8.15;;
54121;SDS011;40029;58.708;50.190;2023-03-01T18:21:52;12.55;;;5.82;;
54121;SDS011;40029;58.708;50.190;2023-03-01T18:24:24;15.15;;;5.65;;
54121;SDS011;40029;58.708;50.190;2023-03-01T18:26:55;17.10;;;6.47;;
54121;SDS011;40029;58.708;50.190;2023-03-01T18:29:26;15.30;;;5.65;;
54121;SDS011;40029;58.708;50.190;2023-03-01T18:31:58;7.93;;;3.72;;
54121;SDS011;40029;58.708;50.190;2023-03-01T18:34:29;16.33;;;4.80;;
54121;SDS011;40029;58.708;50.190;2023-03-01T18:37:00;9.93;;;4.43;;
54121;SDS011;40029;58.708;50.190;2023-03-01T18:39:32;15.32;;;6.60;;
54121;SDS011;40029;58.708;50.190;2023-03-01T18:42:21;13.30;;;5.97;;
54121;SDS011;40029;58.708;50.190;2023-03-01T18:44:52;16.58;;;6.25;;
54121;SDS011;40029;58.708;50.190;2023-03-01T18:47:23;18.77;;;7.22;;
54121;SDS011;40029;58.708;50.190;2023-03-01T18:49:54;25.88;;;10.18;;
54121;SDS011;40029;58.708;50.190;2023-03-01T18:52:25;26.45;;;10.13;;
54121;SDS011;40029;58.708;50.190;2023-03-01T18:54:56;35.15;;;12.30;;
54121;SDS011;40029;58.708;50.190;2023-03-01T18:57:27;31.70;;;9.27;;
54121;SDS011;40029;58.708;50.190;2023-03-01T18:59:58;28.90;;;10.93;;
54121;SDS011;40029;58.708;50.190;2023-03-01T19:02:29;34.97;;;11.10;;
54121;SDS011;40029;58.708;50.190;2023-03-01T19:05:00;33.22;;;12.05;;
54121;SDS011;40029;58.708;50.190;2023-03-01T19:07:33;44.13;;;12.68;;
54121;SDS011;40029;58.708;50.190;2023-03-01T19:10:05;23.27;;;8.95;;
54121;SDS011;40029;58.708;50.190;2023-03-01T19:12:36;21.70;;;8.23;;
54121;SDS011;40029;58.708;50.190;2023-03-01T19:15:07;21.85;;;8.15;;
54121;SDS011;40029;58.708;50.190;2023-03-01T19:17:38;24.92;;;8.88;;
54121;SDS011;40029;58.708;50.190;2023-03-01T19:20:10;24.92;;;10.20;;
54121;SDS011;40029;58.708;50.190;2023-03-01T19:22:41;13.63;;;5.78;;
54121;SDS011;40029;58.708;50.190;2023-03-01T19:25:12;16.20;;;5.55;;
54121;SDS011;40029;58.708;50.190;2023-03-01T19:28:02;11.70;;;4.57;;
54121;SDS011;40029;58.708;50.190;2023-03-01T19:30:33;13.95;;;6.38;;
54121;SDS011;40029;58.708;50.190;2023-03-01T19:33:04;15.88;;;5.55;;
54121;SDS011;40029;58.708;50.190;2023-03-01T19:35:35;18.98;;;7.55;;
54121;SDS011;40029;58.708;50.190;2023-03-01T19:38:06;15.07;;;6.93;;
54121;SDS011;40029;58.708;50.190;2023-03-01T19:40:37;15.50;;;6.82;;
54121;SDS011;40029;58.708;50.190;2023-03-01T19:43:08;9.75;;;4.22;;
54121;SDS011;40029;58.708;50.190;2023-03-01T19:45:39;14.50;;;5.93;;
54121;SDS011;40029;58.708;50.190;2023-03-01T19:48:29;20.38;;;4.95;;
54121;SDS011;40029;58.708;50.190;2023-03-01T19:51:00;16.65;;;7.30;;
54121;SDS011;40029;58.708;50.190;2023-03-01T19:53:31;24.05;;;8.25;;
54121;SDS011;40029;58.708;50.190;2023-03-01T19:56:03;22.63;;;7.43;;
54121;SDS011;40029;58.708;50.190;2023-03-01T19:58:34;26.40;;;7.10;;
54121;SDS011;40029;58.708;50.190;2023-03-01T20:01:12;19.65;;;8.40;;
54121;SDS011;40029;58.708;50.190;2023-03-01T20:03:45;26.23;;;7.72;;
54121;SDS011;40029;58.708;50.190;2023-03-01T20:06:17;22.40;;;7.45;;
54121;SDS011;40029;58.708;50.190;2023-03-01T20:08:51;22.95;;;8.82;;
54121;SDS011;40029;58.708;50.190;2023-03-01T20:11:22;24.25;;;8.77;;
54121;SDS011;40029;58.708;50.190;2023-03-01T20:13:53;29.40;;;10.30;;
54121;SDS011;40029;58.708;50.190;2023-03-01T20:16:24;25.05;;;8.27;;
54121;SDS011;40029;58.708;50.190;2023-03-01T20:18:58;25.73;;;8.88;;
54121;SDS011;40029;58.708;50.190;2023-03-01T20:21:30;30.08;;;8.68;;
54121;SDS011;40029;58.708;50.190;2023-03-01T20:24:02;26.33;;;8.07;;
54121;SDS011;40029;58.708;50.190;2023-03-01T20:26:33;22.38;;;7.95;;
54121;SDS011;40029;58.708;50.190;2023-03-01T20:29:06;28.30;;;8.10;;
54121;SDS011;40029;58.708;50.190;2023-03-01T20:31:38;21.90;;;8.18;;
54121;SDS011;40029;58.708;50.190;2023-03-01T20:34:11;30.02;;;9.50;;
54121;SDS011;40029;58.708;50.190;2023-03-01T20:37:00;30.02;;;9.52;;
54121;SDS011;40029;58.708;50.190;2023-03-01T20:39:32;27.58;;;9.88;;
54121;SDS011;40029;58.708;50.190;2023-03-01T20:42:03;23.63;;;9.40;;
54121;SDS011;40029;58.708;50.190;2023-03-01T20:44:52;23.35;;;10.73;;
54121;SDS011;40029;58.708;50.190;2023-03-01T20:47:23;26.88;;;9.82;;
54121;SDS011;40029;58.708;50.190;2023-03-01T20:50:13;46.13;;;16.90;;
54121;SDS011;40029;58.708;50.190;2023-03-01T20:53:03;50.83;;;17.85;;
54121;SDS011;40029;58.708;50.190;2023-03-01T20:55:34;64.90;;;19.13;;
54121;SDS011;40029;58.708;50.190;2023-03-01T20:58:05;50.92;;;17.25;;
54121;SDS011;40029;58.708;50.190;2023-03-01T21:00:36;48.75;;;14.93;;
54121;SDS011;40029;58.708;50.190;2023-03-01T21:03:07;36.85;;;12.40;;
54121;SDS011;40029;58.708;50.190;2023-03-01T21:05:38;43.45;;;13.20;;
54121;SDS011;40029;58.708;50.190;2023-03-01T21:08:29;33.35;;;11.32;;
54121;SDS011;40029;58.708;50.190;2023-03-01T21:11:00;38.60;;;13.38;;
54121;SDS011;40029;58.708;50.190;2023-03-01T21:13:53;39.45;;;12.75;;
54121;SDS011;40029;58.708;50.190;2023-03-01T21:16:24;40.75;;;12.57;;
54121;SDS011;40029;58.708;50.190;2023-03-01T21:18:57;35.13;;;11.40;;
54121;SDS011;40029;58.708;50.190;2023-03-01T21:21:31;32.28;;;10.02;;
54121;SDS011;40029;58.708;50.190;2023-03-01T21:24:02;31.42;;;11.23;;
54121;SDS011;40029;58.708;50.190;2023-03-01T21:26:34;38.05;;;11.88;;
54121;SDS011;40029;58.708;50.190;2023-03-01T21:29:24;43.83;;;11.77;;
54121;SDS011;40029;58.708;50.190;2023-03-01T21:31:55;45.13;;;12.13;;
54121;SDS011;40029;58.708;50.190;2023-03-01T21:34:25;50.90;;;12.23;;
54121;SDS011;40029;58.708;50.190;2023-03-01T21:36:57;42.83;;;12.32;;
54121;SDS011;40029;58.708;50.190;2023-03-01T21:39:28;33.17;;;10.55;;
54121;SDS011;40029;58.708;50.190;2023-03-01T21:42:00;38.33;;;11.13;;
54121;SDS011;40029;58.708;50.190;2023-03-01T21:44:51;70.13;;;18.77;;
54121;SDS011;40029;58.708;50.190;2023-03-01T21:47:22;75.80;;;18.63;;
54121;SDS011;40029;58.708;50.190;2023-03-01T21:49:54;77.18;;;17.92;;
54121;SDS011;40029;58.708;50.190;2023-03-01T21:52:25;63.87;;;18.83;;